»·PEaware :: N1158M KSMN-KSFF

N1158M :: KSMN-KSFF

FLIGHT INFORMATION

Flight Status: Arrived
Operator: Privately registered:
United States
More flights under this callsign
Pilot: Steven W. (36)
Aircraft: CESSNA 337 TURBO SKYMASTER
(C337)
More flights by this aircraft type
Origin: KSMN Lemhi Co
United States
Destination: KSFF Felts
United States
More flights between these airports :: More routes between these airports
Route: +FIPFE V231 MSO V2 ROPES
File this flight plan on PilotEdge
Remarks:
Altitude:
(Current/Filed)
14,000ft
Speed:
(Current/Filed)
160kts
Departed: 12-Feb-18 04:25 PM
Arrived: 12-Feb-18 06:07 PM
Distance/Time
Traveled:
209nm/1:42
Distance/Time
To Go:
Arrived

Flight Plot

Page will automatically refresh every two minutes.

Flight plan parsing failed; only flown route is shown


Map Options




Map Legend


Flown Route
Filed Route
Departure Airport
Arrival Airport
Navaid (VOR, NDB)
Fix

Horizontal Profiles

Position Reports

Time Latitude Longitude Heading Altitude Ground
Speed
12-Feb-18 16:09 45.116875 -113.884839 0 4046ft 0kts
12-Feb-18 16:10 45.116875 -113.884839 0 4046ft 0kts
12-Feb-18 16:11 45.116875 -113.884839 0 4046ft 0kts
12-Feb-18 16:12 45.116875 -113.884839 0 4046ft 0kts
12-Feb-18 16:13 45.116875 -113.884839 0 4046ft 0kts
12-Feb-18 16:14 45.116875 -113.884839 0 4046ft 0kts
12-Feb-18 16:15 45.116875 -113.884839 0 4046ft 0kts
12-Feb-18 16:16 45.116875 -113.884839 0 4046ft 0kts
12-Feb-18 16:17 45.116875 -113.884839 0 4046ft 0kts
12-Feb-18 16:18 45.116875 -113.884839 0 4046ft 0kts
12-Feb-18 16:19 45.116875 -113.884839 0 4046ft 0kts
12-Feb-18 16:20 45.116875 -113.884839 0 4046ft 0kts
12-Feb-18 16:21 45.116875 -113.884839 0 4046ft 0kts
12-Feb-18 16:22 45.116875 -113.884839 0 4046ft 0kts
12-Feb-18 16:23 45.116875 -113.884839 0 4046ft 0kts
12-Feb-18 16:24 45.116875 -113.884839 0 4046ft 0kts
12-Feb-18 16:25 45.116875 -113.884839 0 4046ft 0kts
12-Feb-18 16:26 45.116875 -113.884839 0 4046ft 0kts
12-Feb-18 16:27 45.116875 -113.884839 0 4046ft 0kts
12-Feb-18 16:28 45.116875 -113.884839 0 4046ft 0kts
12-Feb-18 16:29 45.116875 -113.884839 0 4046ft 0kts
12-Feb-18 16:30 45.116869 -113.883031 97 4046ft 1kts
12-Feb-18 16:31 45.117159 -113.882618 1 4046ft 0kts
12-Feb-18 16:32 45.119495 -113.882176 7 4046ft 63kts
12-Feb-18 16:33 45.144422 -113.877137 4 4925ft 91kts
12-Feb-18 16:34 45.171675 -113.877916 1 5810ft 104kts
12-Feb-18 16:35 45.201653 -113.876896 2 6806ft 113kts
12-Feb-18 16:36 45.232383 -113.877000 4 7796ft 108kts
12-Feb-18 16:37 45.256673 -113.874719 2 8619ft 102kts
12-Feb-18 16:38 45.290006 -113.879173 352 9579ft 110kts
12-Feb-18 16:39 45.317369 -113.884490 351 10175ft 127kts
12-Feb-18 16:40 45.353507 -113.891660 351 10875ft 134kts
12-Feb-18 16:41 45.395256 -113.906091 330 11684ft 133kts
12-Feb-18 16:42 45.422937 -113.924084 350 12261ft 132kts
12-Feb-18 16:43 45.459025 -113.930335 351 12950ft 129kts
12-Feb-18 16:44 45.494128 -113.936159 351 13637ft 125kts
12-Feb-18 16:45 45.528006 -113.941674 352 14275ft 124kts
12-Feb-18 16:46 45.569447 -113.948753 352 14003ft 160kts
12-Feb-18 16:47 45.614060 -113.956497 352 14002ft 163kts
12-Feb-18 16:48 45.658291 -113.963660 355 14002ft 163kts
12-Feb-18 16:49 45.703753 -113.966714 356 14002ft 163kts
12-Feb-18 16:50 45.749109 -113.969699 356 14002ft 163kts
12-Feb-18 16:51 45.794684 -113.972688 356 14002ft 163kts
12-Feb-18 16:52 45.840006 -113.975655 356 14002ft 163kts
12-Feb-18 16:53 45.885437 -113.978619 356 14002ft 163kts
12-Feb-18 16:54 45.930825 -113.981570 356 14006ft 163kts
12-Feb-18 16:55 45.976012 -113.984489 356 14049ft 162kts
12-Feb-18 16:56 46.020891 -113.987364 356 14093ft 161kts
12-Feb-18 16:57 46.065402 -113.991694 354 14136ft 161kts
12-Feb-18 16:58 46.109870 -113.996917 354 14157ft 161kts
12-Feb-18 16:59 46.154363 -114.002146 354 14156ft 162kts
12-Feb-18 17:00 46.199302 -114.007420 354 14156ft 162kts
12-Feb-18 17:01 46.244156 -114.012678 354 14156ft 162kts
12-Feb-18 17:02 46.289022 -114.017928 354 14156ft 162kts
12-Feb-18 17:03 46.333814 -114.023164 354 14156ft 162kts
12-Feb-18 17:04 46.378754 -114.028412 354 14156ft 162kts
12-Feb-18 17:05 46.423628 -114.033640 354 14155ft 162kts
12-Feb-18 17:06 46.468451 -114.038857 354 14155ft 162kts
12-Feb-18 17:07 46.513311 -114.044075 354 14155ft 162kts
12-Feb-18 17:08 46.558090 -114.049271 354 14157ft 162kts
12-Feb-18 17:09 46.603091 -114.054490 354 14158ft 163kts
12-Feb-18 17:10 46.648100 -114.059708 354 14157ft 163kts
12-Feb-18 17:11 46.693339 -114.064923 354 14148ft 163kts
12-Feb-18 17:12 46.738585 -114.070127 354 14148ft 163kts
12-Feb-18 17:13 46.783665 -114.075305 354 14148ft 163kts
12-Feb-18 17:14 46.828799 -114.080484 354 14148ft 163kts
12-Feb-18 17:15 46.874007 -114.084805 356 14148ft 163kts
12-Feb-18 17:16 46.913262 -114.104004 304 14150ft 162kts
12-Feb-18 17:17 46.935825 -114.161390 301 14149ft 163kts
12-Feb-18 17:18 46.957138 -114.219712 301 14149ft 162kts
12-Feb-18 17:19 46.978184 -114.278162 301 14148ft 161kts
12-Feb-18 17:20 46.998980 -114.336158 301 14148ft 161kts
12-Feb-18 17:21 47.019772 -114.394294 301 14148ft 160kts
12-Feb-18 17:22 47.040362 -114.451993 302 14148ft 160kts
12-Feb-18 17:23 47.060964 -114.509825 302 14148ft 159kts
12-Feb-18 17:24 47.081458 -114.567499 302 14148ft 159kts
12-Feb-18 17:25 47.101864 -114.625054 302 14147ft 159kts
12-Feb-18 17:26 47.122263 -114.682714 302 14147ft 159kts
12-Feb-18 17:27 47.143099 -114.741715 301 13992ft 164kts
12-Feb-18 17:28 47.163772 -114.800457 302 13991ft 160kts
12-Feb-18 17:29 47.184163 -114.858480 302 13991ft 159kts
12-Feb-18 17:30 47.204526 -114.916551 302 13991ft 159kts
12-Feb-18 17:31 47.224830 -114.974591 302 13991ft 159kts
12-Feb-18 17:32 47.245121 -115.032750 302 13991ft 159kts
12-Feb-18 17:33 47.265352 -115.090839 303 13991ft 159kts
12-Feb-18 17:34 47.285718 -115.148668 303 13991ft 160kts
12-Feb-18 17:35 47.306098 -115.207167 303 13991ft 160kts
12-Feb-18 17:36 47.326386 -115.265720 303 13991ft 160kts
12-Feb-18 17:37 47.346615 -115.324304 303 13990ft 160kts
12-Feb-18 17:38 47.366811 -115.382937 303 13991ft 160kts
12-Feb-18 17:39 47.386984 -115.441636 303 13996ft 160kts
12-Feb-18 17:40 47.407105 -115.500316 303 14004ft 160kts
12-Feb-18 17:41 47.427172 -115.558973 303 14010ft 160kts
12-Feb-18 17:42 47.447317 -115.617985 303 14015ft 160kts
12-Feb-18 17:43 47.459093 -115.682160 283 14017ft 168kts
12-Feb-18 17:44 47.463445 -115.751133 283 14017ft 168kts
12-Feb-18 17:45 47.467707 -115.820073 283 14017ft 168kts
12-Feb-18 17:46 47.471920 -115.889017 283 14017ft 168kts
12-Feb-18 17:47 47.476100 -115.958116 283 14017ft 168kts
12-Feb-18 17:48 47.480229 -116.027067 283 14017ft 168kts
12-Feb-18 17:49 47.484321 -116.096121 283 14017ft 168kts
12-Feb-18 17:50 47.488625 -116.164988 282 14017ft 169kts
12-Feb-18 17:51 47.492717 -116.234342 282 14017ft 169kts
12-Feb-18 17:52 47.496693 -116.303402 282 14017ft 169kts
12-Feb-18 17:53 47.500633 -116.372713 282 14017ft 169kts
12-Feb-18 17:54 47.504531 -116.442039 282 14017ft 169kts
12-Feb-18 17:55 47.508375 -116.511158 282 14017ft 169kts
12-Feb-18 17:56 47.512195 -116.580617 282 14017ft 169kts
12-Feb-18 17:57 47.515965 -116.649867 282 14017ft 169kts
12-Feb-18 17:58 47.519705 -116.719055 282 14017ft 169kts
12-Feb-18 17:59 47.523407 -116.788445 282 14017ft 169kts
12-Feb-18 18:00 47.527228 -116.860607 280 13055ft 172kts
12-Feb-18 18:01 47.530818 -116.929365 280 11918ft 167kts
12-Feb-18 18:02 47.534320 -116.997704 280 10704ft 167kts
12-Feb-18 18:03 47.537722 -117.065020 280 10008ft 157kts
12-Feb-18 18:04 47.541177 -117.128065 288 10013ft 149kts
12-Feb-18 18:05 47.567805 -117.170544 321 9652ft 154kts
12-Feb-18 18:06 47.599776 -117.213691 323 7890ft 149kts
12-Feb-18 18:07 47.632157 -117.247895 329 5655ft 145kts
12-Feb-18 18:08 47.663470 -117.280125 312 3794ft 136kts
12-Feb-18 18:09 47.685311 -117.319278 264 2920ft 115kts
12-Feb-18 18:10 47.673764 -117.361919 256 2667ft 104kts
12-Feb-18 18:11 47.661698 -117.391978 133 2729ft 105kts
12-Feb-18 18:12 47.667857 -117.353741 48 2457ft 85kts
12-Feb-18 18:13 47.681531 -117.326729 53 1956ft 66kts
12-Feb-18 18:14 47.686081 -117.316275 133 1956ft 13kts
12-Feb-18 18:15 47.682575 -117.314347 255 1956ft 16kts
12-Feb-18 18:16 47.681394 -117.318130 158 1956ft 0kts
12-Feb-18 18:17 47.681394 -117.318130 158 1956ft 0kts

Navigation Log

Ident Type
Flight plan parsing failed, navigation log unavailable